Time;durP1;ratioP1;P1;durP2;ratioP2;P2;SDS_P1;SDS_P2;PMS_P1;PMS_P2;Temp;Humidity;BMP_temperature;BMP_pressure;BME280_temperature;BME280_humidity;BME280_pressure;Samples;Min_cycle;Max_cycle;Signal;HPM_P1;HPM_P2
2021/12/04 00:01:18;;;;;;;0.88;0.40;;;4.80;99.90;;;;;;6704865;88;20207;-76
2021/12/04 00:11:18;;;;;;;1.33;0.60;;;4.90;99.90;;;;;;6705780;88;20342;-76
2021/12/04 00:21:19;;;;;;;0.98;0.40;;;4.90;99.90;;;;;;6706474;88;20727;-77
2021/12/04 00:31:20;;;;;;;1.25;0.60;;;4.90;99.90;;;;;;6703025;88;20253;-76
2021/12/04 00:51:45;;;;;;;1.52;0.60;;;4.90;99.90;;;;;;6708833;88;20175;-76
2021/12/04 01:01:46;;;;;;;1.10;0.50;;;4.90;99.90;;;;;;6714791;88;20772;-75
2021/12/04 01:11:48;;;;;;;1.73;0.50;;;4.90;99.90;;;;;;6701553;88;20193;-76
2021/12/04 01:21:53;;;;;;;1.20;0.57;;;4.90;99.90;;;;;;6707102;88;20353;-76
2021/12/04 01:31:53;;;;;;;1.70;1.00;;;4.90;99.90;;;;;;6706352;88;20199;-76
2021/12/04 01:41:54;;;;;;;2.25;1.20;;;4.70;99.90;;;;;;6707584;88;20313;-77
2021/12/04 01:51:54;;;;;;;2.90;1.35;;;4.70;99.90;;;;;;6708787;88;20234;-76
2021/12/04 02:01:58;;;;;;;2.30;1.30;;;4.60;99.90;;;;;;6708100;88;20721;-76
2021/12/04 02:11:59;;;;;;;2.28;1.37;;;4.60;99.90;;;;;;6699515;88;20263;-76
2021/12/04 02:22:00;;;;;;;2.70;1.50;;;4.40;99.90;;;;;;6710513;88;20207;-76
2021/12/04 02:32:01;;;;;;;4.07;1.80;;;4.20;99.90;;;;;;6712046;88;20206;-77
2021/12/04 02:42:04;;;;;;;3.12;1.58;;;4.20;99.90;;;;;;6707260;88;20616;-76
2021/12/04 02:52:08;;;;;;;2.72;1.55;;;4.10;99.90;;;;;;6703566;88;20322;-76
2021/12/04 03:02:17;;;;;;;2.60;1.50;;;4.10;99.90;;;;;;6702892;88;20228;-77
2021/12/04 03:12:19;;;;;;;2.85;1.50;;;4.10;99.90;;;;;;6719038;88;20163;-77
2021/12/04 03:22:22;;;;;;;2.22;1.27;;;4.00;99.90;;;;;;6713506;88;20240;-77
2021/12/04 03:42:43;;;;;;;3.05;1.37;;;4.10;99.90;;;;;;6703924;88;20268;-76
2021/12/04 03:52:44;;;;;;;4.57;1.20;;;4.10;99.90;;;;;;6709309;88;20792;-76
2021/12/04 04:02:45;;;;;;;2.20;1.05;;;4.00;99.90;;;;;;6704735;88;20206;-76
2021/12/04 04:12:45;;;;;;;3.53;2.10;;;3.90;99.90;;;;;;6697939;88;20183;-76
2021/12/04 04:22:47;;;;;;;3.87;1.90;;;3.80;99.90;;;;;;6704464;88;20190;-76
2021/12/04 04:32:49;;;;;;;5.90;2.30;;;3.80;99.90;;;;;;6704134;88;20492;-76
2021/12/04 05:13:47;;;;;;;2.65;1.73;;;3.80;99.90;;;;;;6707397;88;20203;-76
2021/12/04 05:23:52;;;;;;;5.37;2.80;;;3.80;99.90;;;;;;6711841;88;20203;-75
2021/12/04 05:33:52;;;;;;;2.67;1.83;;;3.80;99.90;;;;;;6725823;77;20194;-74
2021/12/04 05:43:53;;;;;;;4.40;2.65;;;3.80;99.90;;;;;;6743733;88;20685;-74
2021/12/04 06:03:57;;;;;;;4.35;2.15;;;3.80;99.90;;;;;;6744398;88;20252;-74
2021/12/04 06:13:57;;;;;;;4.10;2.47;;;3.80;99.90;;;;;;6744864;88;20261;-74
2021/12/04 06:23:58;;;;;;;4.20;2.58;;;3.80;99.90;;;;;;6751555;88;20198;-74
2021/12/04 06:33:58;;;;;;;4.35;2.50;;;3.80;99.90;;;;;;6737682;88;20319;-75
2021/12/04 06:43:59;;;;;;;3.63;2.27;;;3.70;99.90;;;;;;6737631;88;20251;-74
2021/12/04 07:04:01;;;;;;;4.05;2.05;;;3.70;99.90;;;;;;6736507;88;20659;-75
2021/12/04 07:14:02;;;;;;;3.60;2.17;;;3.70;99.90;;;;;;6737128;88;20714;-76
2021/12/04 07:24:02;;;;;;;3.10;1.85;;;3.60;99.90;;;;;;6745999;88;20997;-74
2021/12/04 07:34:04;;;;;;;4.25;2.42;;;3.50;99.90;;;;;;6736350;88;20203;-74
2021/12/04 07:44:08;;;;;;;5.85;2.83;;;3.50;99.90;;;;;;6736678;88;20218;-75
2021/12/04 07:54:09;;;;;;;4.82;2.40;;;3.60;99.90;;;;;;6736837;88;20633;-75
2021/12/04 08:04:10;;;;;;;3.53;2.20;;;3.70;99.90;;;;;;6734991;88;20201;-75
2021/12/04 08:14:10;;;;;;;3.25;2.05;;;3.80;99.90;;;;;;6729774;88;20206;-75
2021/12/04 08:24:11;;;;;;;3.97;2.30;;;3.90;99.90;;;;;;6730958;88;20214;-76
2021/12/04 08:34:11;;;;;;;4.75;2.00;;;4.00;99.90;;;;;;6745480;88;20205;-77
2021/12/04 08:44:12;;;;;;;3.25;1.90;;;4.00;99.90;;;;;;6749197;88;20517;-75
2021/12/04 08:54:13;;;;;;;3.40;1.80;;;4.20;99.90;;;;;;6735719;88;20198;-75
2021/12/04 09:04:18;;;;;;;2.95;1.87;;;4.20;99.90;;;;;;6738736;88;20267;-75
2021/12/04 09:14:23;;;;;;;4.07;2.20;;;4.30;99.90;;;;;;6737244;88;20331;-74
2021/12/04 09:24:36;;;;;;;3.95;2.00;;;4.20;99.90;;;;;;6732732;88;20320;-74
2021/12/04 10:16:22;;;;;;;2.25;1.00;;;4.90;99.90;;;;;;6739275;88;20181;-75
2021/12/04 10:36:46;;;;;;;3.05;1.73;;;4.80;99.90;;;;;;6731611;88;20967;-75
2021/12/04 10:47:00;;;;;;;2.80;1.58;;;4.80;99.90;;;;;;6737832;88;20216;-75
2021/12/04 10:57:50;;;;;;;2.80;1.45;;;5.00;99.90;;;;;;6735334;88;20222;-77
2021/12/04 11:18:35;;;;;;;3.25;1.77;;;5.10;99.90;;;;;;6736309;88;20170;-74
2021/12/04 11:39:41;;;;;;;1.80;1.02;;;5.20;99.90;;;;;;6723374;77;20197;-76
2021/12/04 11:49:42;;;;;;;2.15;1.30;;;5.30;99.90;;;;;;6721780;88;20202;-76
2021/12/04 11:59:45;;;;;;;1.85;1.12;;;5.10;99.90;;;;;;6720441;88;20189;-76
2021/12/04 12:09:49;;;;;;;2.70;1.40;;;5.40;99.90;;;;;;6720164;88;20298;-76
2021/12/04 12:19:54;;;;;;;2.15;1.20;;;5.30;99.90;;;;;;6721378;88;20903;-76
2021/12/04 12:40:28;;;;;;;3.28;1.60;;;5.10;99.90;;;;;;6719327;88;20281;-75
2021/12/04 12:50:34;;;;;;;3.60;2.17;;;5.00;99.90;;;;;;6719326;88;20203;-77
2021/12/04 13:21:31;;;;;;;6.57;3.30;;;5.10;99.90;;;;;;6717825;88;20166;-77
2021/12/04 13:31:37;;;;;;;6.55;3.58;;;4.70;99.90;;;;;;6723140;88;20317;-76
2021/12/04 13:41:41;;;;;;;6.00;3.60;;;4.80;99.90;;;;;;6719273;88;20193;-77
2021/12/04 13:51:42;;;;;;;6.15;3.33;;;5.00;99.90;;;;;;6720699;88;20217;-76
2021/12/04 14:01:43;;;;;;;6.32;3.67;;;5.00;99.90;;;;;;6718477;88;20194;-76
2021/12/04 14:11:45;;;;;;;5.93;3.50;;;4.90;99.90;;;;;;6720613;88;20231;-77
2021/12/04 14:22:10;;;;;;;5.57;3.60;;;5.00;99.90;;;;;;6713629;88;20511;-77
2021/12/04 14:32:11;;;;;;;7.60;3.90;;;5.00;99.90;;;;;;6720101;88;20696;-76
2021/12/04 14:42:23;;;;;;;6.30;3.93;;;4.90;99.90;;;;;;6720857;88;20313;-76
2021/12/04 14:52:25;;;;;;;6.45;4.05;;;5.00;99.90;;;;;;6715020;88;20523;-76
2021/12/04 15:02:26;;;;;;;6.32;3.67;;;4.90;99.90;;;;;;6720868;88;20182;-77
2021/12/04 15:12:35;;;;;;;6.18;3.65;;;4.80;99.90;;;;;;6718873;88;20189;-77
2021/12/04 15:22:42;;;;;;;8.88;5.07;;;4.90;99.90;;;;;;6719515;88;20933;-77
2021/12/04 15:32:44;;;;;;;8.48;4.45;;;4.90;99.90;;;;;;6719915;88;20200;-78
2021/12/04 15:42:57;;;;;;;7.07;3.92;;;5.00;99.90;;;;;;6737197;88;20283;-77
2021/12/04 16:03:01;;;;;;;3.30;1.87;;;5.10;99.90;;;;;;6719686;88;20200;-76
2021/12/04 16:13:04;;;;;;;2.20;1.00;;;4.90;99.90;;;;;;6731263;88;20278;-75
2021/12/04 16:23:04;;;;;;;2.08;0.85;;;4.60;99.90;;;;;;6737237;88;20237;-77
2021/12/04 16:33:27;;;;;;;1.60;0.82;;;4.40;99.90;;;;;;6718914;88;20221;-76
2021/12/04 16:43:33;;;;;;;1.98;1.00;;;4.40;99.90;;;;;;6720519;88;20197;-77
2021/12/04 17:03:56;;;;;;;2.58;1.42;;;4.40;99.90;;;;;;6734983;88;20291;-76
2021/12/04 17:13:56;;;;;;;4.10;2.10;;;4.50;99.90;;;;;;6722257;88;20784;-76
2021/12/04 17:23:58;;;;;;;5.10;2.58;;;4.70;99.90;;;;;;6721453;88;20581;-77
2021/12/04 17:44:09;;;;;;;8.15;3.42;;;4.90;99.90;;;;;;6714914;88;20186;-75
2021/12/04 17:54:11;;;;;;;5.82;2.65;;;5.10;99.90;;;;;;6712057;88;20290;-76
2021/12/04 18:04:12;;;;;;;8.02;2.37;;;5.10;99.90;;;;;;6716693;88;20186;-76
2021/12/04 18:14:16;;;;;;;7.12;3.28;;;5.10;99.90;;;;;;6717502;88;20209;-76
2021/12/04 18:24:19;;;;;;;7.20;3.70;;;5.10;99.90;;;;;;6717748;88;20250;-76
2021/12/04 18:34:20;;;;;;;8.35;3.37;;;5.30;99.90;;;;;;6727373;88;20223;-75
2021/12/04 18:44:22;;;;;;;11.23;3.92;;;5.30;99.90;;;;;;6722391;88;20686;-75
2021/12/04 18:54:24;;;;;;;11.12;4.05;;;5.10;99.90;;;;;;6740426;88;20841;-78
2021/12/04 19:04:25;;;;;;;12.63;3.75;;;5.00;99.90;;;;;;6720789;88;20682;-76
2021/12/04 19:14:26;;;;;;;9.95;2.80;;;4.80;99.90;;;;;;6717776;88;20217;-76
2021/12/04 19:24:27;;;;;;;11.75;2.40;;;4.80;99.90;;;;;;6720530;88;20624;-76
2021/12/04 19:34:54;;;;;;;12.32;2.17;;;4.80;99.90;;;;;;6718355;88;20262;-76
2021/12/04 19:55:13;;;;;;;8.95;2.28;;;4.70;99.90;;;;;;6717740;88;20233;-75
2021/12/04 20:05:30;;;;;;;8.65;2.60;;;4.70;99.90;;;;;;6719633;88;20188;-76
2021/12/04 20:15:35;;;;;;;10.70;2.47;;;4.80;99.90;;;;;;6716588;88;20211;-75
2021/12/04 20:25:42;;;;;;;7.10;2.60;;;4.80;99.90;;;;;;6712971;88;20194;-76
2021/12/04 20:36:22;;;;;;;9.32;2.60;;;4.90;99.90;;;;;;6715649;88;20754;-75
2021/12/04 21:06:51;;;;;;;8.07;2.58;;;5.10;99.90;;;;;;6709377;88;20664;-75
2021/12/04 21:58:25;;;;;;;8.32;3.05;;;4.20;99.90;;;;;;6707346;88;20186;-74
2021/12/04 22:59:50;;;;;;;8.02;1.00;;;4.50;99.90;;;;;;6707334;88;20214;-74
2021/12/04 23:41:36;;;;;;;6.12;1.20;;;4.90;99.90;;;;;;6704712;88;20277;-74
2021/12/04 23:51:59;;;;;;;5.00;1.60;;;5.00;99.90;;;;;;6706787;88;20206;-75
